Aviation Digital Data Service (ADDS)

Output produced by TAFs form (0452 UTC 23 February 2017)
found at http://aviationweather.gov/adds/tafs/
 
KVEL 230408Z 2304/2324 35008KT 2SM -SN BR BKN012 OVC016 
     TEMPO 2304/2305 1SM -SN BR BKN009 BKN012 
     FM230500 05007KT 3SM -SN OVC025 
     FM231300 06006KT 4SM BR VCSH OVC035 
     FM232000 27010G15KT P6SM OVC035